Time;durP1;ratioP1;P1;durP2;ratioP2;P2;SDS_P1;SDS_P2;PMS_P1;PMS_P2;Temp;Humidity;BMP_temperature;BMP_pressure;BME280_temperature;BME280_humidity;BME280_pressure;Samples;Min_cycle;Max_cycle;Signal;HPM_P1;HPM_P2
2022/09/20 00:02:22;;;;;;;;;;;10.50;99.90;;;;;;4965629;28;19929;-79
2022/09/20 00:04:48;;;;;;;;;;;10.50;99.90;;;;;;4992536;28;19925;-84
2022/09/20 00:07:14;;;;;;;;;;;10.50;99.90;;;;;;4976741;28;19925;-81
2022/09/20 00:09:40;;;;;;;;;;;10.50;99.90;;;;;;5007178;28;19933;-84
2022/09/20 00:12:06;;;;;;;;;;;10.40;99.90;;;;;;4988021;28;19937;-81
2022/09/20 00:14:32;;;;;;;;;;;10.70;99.90;;;;;;5006821;28;20036;-80
2022/09/20 00:16:58;;;;;;;;;;;10.40;99.90;;;;;;4993360;28;20012;-79
2022/09/20 00:19:24;;;;;;;;;;;10.50;99.90;;;;;;4993307;28;19986;-82
2022/09/20 00:21:57;;;;;;;;;;;;;;;;;;4993150;28;19949;-92
2022/09/20 00:24:23;;;;;;;;;;;10.30;99.90;;;;;;5007011;28;19973;-79
2022/09/20 00:26:50;;;;;;;;;;;10.40;99.90;;;;;;4972595;28;19934;-80
2022/09/20 00:29:16;;;;;;;;;;;;;;;;;;4990539;28;20075;-78
2022/09/20 00:31:42;;;;;;;;;;;10.30;99.90;;;;;;5010472;28;19925;-78
2022/09/20 00:36:53;;;;;;;;;;;10.40;99.90;;;;;;4995089;28;19929;-78
2022/09/20 00:39:19;;;;;;;;;;;10.40;99.90;;;;;;4993716;28;19935;-91
2022/09/20 00:41:45;;;;;;;;;;;10.20;99.90;;;;;;4994153;28;19940;-79
2022/09/20 00:44:30;;;;;;;;;;;10.30;99.90;;;;;;5005069;28;19948;-81
2022/09/20 00:47:05;;;;;;;;;;;10.30;99.90;;;;;;4993293;28;20017;-95
2022/09/20 00:49:33;;;;;;;;;;;10.40;99.90;;;;;;5004303;28;19929;-78
2022/09/20 00:52:00;;;;;;;;;;;10.20;99.90;;;;;;4990673;28;19957;-91
2022/09/20 00:54:27;;;;;;;;;;;10.30;99.90;;;;;;5010783;28;19928;-82
2022/09/20 00:56:53;;;;;;;;;;;10.40;99.90;;;;;;4992826;28;19925;-79
2022/09/20 00:59:26;;;;;;;;;;;10.20;99.90;;;;;;4994260;28;19929;-80
2022/09/20 01:01:54;;;;;;;;;;;10.20;99.90;;;;;;4990045;28;20017;-84
2022/09/20 01:04:22;;;;;;;;;;;10.20;99.90;;;;;;5009927;28;19925;-87
2022/09/20 01:07:07;;;;;;;;;;;10.30;99.90;;;;;;5004621;28;19929;-88
2022/09/20 01:09:33;;;;;;;;;;;10.20;99.90;;;;;;4993642;28;19971;-79
2022/09/20 01:12:02;;;;;;;;;;;10.20;99.90;;;;;;4996913;28;19976;-90
2022/09/20 01:14:28;;;;;;;;;;;10.10;99.90;;;;;;4992740;28;20234;-80
2022/09/20 01:16:56;;;;;;;;;;;10.20;99.90;;;;;;4995134;28;20380;-90
2022/09/20 01:19:25;;;;;;;;;;;10.40;99.90;;;;;;4993743;28;19929;-84
2022/09/20 01:21:53;;;;;;;;;;;10.30;99.90;;;;;;4999135;28;20324;-91
2022/09/20 01:24:29;;;;;;;;;;;10.30;99.90;;;;;;4990292;28;19929;-90
2022/09/20 01:27:05;;;;;;;;;;;10.20;99.90;;;;;;4991674;28;19929;-80
2022/09/20 01:29:36;;;;;;;;;;;10.20;99.90;;;;;;4992648;28;19932;-80
2022/09/20 01:32:07;;;;;;;;;;;10.20;99.90;;;;;;4991823;28;19925;-92
2022/09/20 01:34:33;;;;;;;;;;;10.20;99.90;;;;;;4987824;28;19925;-78
2022/09/20 01:37:15;;;;;;;;;;;10.20;99.90;;;;;;4991079;28;20020;-78
2022/09/20 01:39:52;;;;;;;;;;;10.20;99.90;;;;;;4992247;28;19933;-85
2022/09/20 01:42:20;;;;;;;;;;;10.20;99.90;;;;;;4991672;28;19929;-79
2022/09/20 01:44:46;;;;;;;;;;;10.30;99.90;;;;;;5007968;28;20354;-79
2022/09/20 01:47:31;;;;;;;;;;;10.20;99.90;;;;;;4998485;28;20392;-79
2022/09/20 01:50:14;;;;;;;;;;;10.10;99.90;;;;;;4995832;28;20511;-79
2022/09/20 01:52:49;;;;;;;;;;;10.10;99.90;;;;;;5006440;28;19976;-79
2022/09/20 01:55:15;;;;;;;;;;;10.00;99.90;;;;;;5008838;28;20372;-79
2022/09/20 01:57:59;;;;;;;;;;;9.90;99.90;;;;;;5008575;28;19930;-78
2022/09/20 02:00:29;;;;;;;;;;;10.00;99.90;;;;;;4991086;28;19937;-77
2022/09/20 02:03:18;;;;;;;;;;;10.00;99.90;;;;;;5005830;28;20395;-77
2022/09/20 02:08:51;;;;;;;;;;;;;;;;;;5056209;23;19929;-92
2022/09/20 02:11:17;;;;;;;;;;;;;;;;;;5005525;28;20483;-78
2022/09/20 02:13:43;;;;;;;;;;;9.70;99.90;;;;;;5005209;28;19932;-80
2022/09/20 02:16:21;;;;;;;;;;;9.60;99.90;;;;;;4977014;28;19933;-78
2022/09/20 02:18:53;;;;;;;;;;;9.70;99.90;;;;;;4985965;28;19931;-81
2022/09/20 02:21:22;;;;;;;;;;;9.50;99.90;;;;;;4992693;28;19940;-79
2022/09/20 02:23:54;;;;;;;;;;;9.50;99.90;;;;;;4994457;28;19944;-79
2022/09/20 02:26:32;;;;;;;;;;;9.50;99.90;;;;;;4999437;28;19983;-80
2022/09/20 02:28:58;;;;;;;;;;;9.40;99.90;;;;;;4984619;28;20660;-78
2022/09/20 02:31:30;;;;;;;;;;;9.40;99.90;;;;;;5004968;28;19973;-78
2022/09/20 02:34:14;;;;;;;;;;;9.30;99.90;;;;;;5010149;28;19936;-78
2022/09/20 02:36:40;;;;;;;;;;;9.20;99.90;;;;;;4993510;28;19932;-80
2022/09/20 02:39:14;;;;;;;;;;;9.20;99.90;;;;;;4993513;28;19937;-79
2022/09/20 02:41:47;;;;;;;;;;;9.20;99.90;;;;;;4987363;28;19956;-79
2022/09/20 02:44:13;;;;;;;;;;;9.20;99.90;;;;;;4990842;28;19929;-78
2022/09/20 02:46:57;;;;;;;;;;;9.20;99.90;;;;;;5011034;28;20383;-78
2022/09/20 02:49:40;;;;;;;;;;;9.20;99.90;;;;;;4984134;28;19929;-79
2022/09/20 02:52:24;;;;;;;;;;;9.20;99.90;;;;;;4992699;28;19932;-79
2022/09/20 02:55:04;;;;;;;;;;;9.20;99.90;;;;;;4993968;28;19930;-79
2022/09/20 02:57:30;;;;;;;;;;;9.20;99.90;;;;;;4993641;28;19935;-81
2022/09/20 03:00:05;;;;;;;;;;;9.20;99.90;;;;;;5007530;28;19929;-77
2022/09/20 03:02:50;;;;;;;;;;;9.20;99.90;;;;;;4994218;28;19928;-80
2022/09/20 03:05:31;;;;;;;;;;;9.20;99.90;;;;;;5005737;28;19983;-78
2022/09/20 03:08:33;;;;;;;;;;;9.20;99.90;;;;;;4993323;28;20024;-78
2022/09/20 03:11:17;;;;;;;;;;;9.20;99.90;;;;;;4912208;29;19960;-79
2022/09/20 03:13:57;;;;;;;;;;;9.10;99.90;;;;;;4964551;28;20312;-78
2022/09/20 03:16:30;;;;;;;;;;;9.20;99.90;;;;;;4988860;28;19975;-78
2022/09/20 03:19:14;;;;;;;;;;;9.20;99.90;;;;;;4987348;28;19929;-80
2022/09/20 03:21:55;;;;;;;;;;;9.10;99.90;;;;;;4968871;28;19936;-80
2022/09/20 03:24:31;;;;;;;;;;;9.10;99.90;;;;;;4987315;28;19929;-78
2022/09/20 03:27:13;;;;;;;;;;;9.00;99.90;;;;;;4991871;28;19929;-77
2022/09/20 03:29:51;;;;;;;;;;;8.90;99.90;;;;;;4984672;28;19969;-78
2022/09/20 03:32:33;;;;;;;;;;;8.90;99.90;;;;;;4989320;28;19932;-79
2022/09/20 03:35:17;;;;;;;;;;;8.70;99.90;;;;;;4972375;28;20475;-78
2022/09/20 03:37:43;;;;;;;;;;;8.70;99.90;;;;;;4987797;28;20016;-78
2022/09/20 03:40:27;;;;;;;;;;;8.70;99.90;;;;;;4974274;28;20056;-78
2022/09/20 03:42:58;;;;;;;;;;;8.60;99.90;;;;;;4986946;28;19987;-79
2022/09/20 03:45:33;;;;;;;;;;;8.60;99.90;;;;;;4989697;28;19937;-78
2022/09/20 03:48:28;;;;;;;;;;;8.60;99.90;;;;;;4989498;28;19930;-79
2022/09/20 03:50:57;;;;;;;;;;;8.60;99.90;;;;;;4975910;28;20174;-81
2022/09/20 03:53:23;;;;;;;;;;;;;;;;;;4988883;28;19930;-79
2022/09/20 03:56:00;;;;;;;;;;;8.60;99.90;;;;;;4986656;28;19929;-78
2022/09/20 03:58:44;;;;;;;;;;;8.60;99.90;;;;;;4973014;28;20344;-80
2022/09/20 04:01:19;;;;;;;;;;;8.50;99.90;;;;;;4971167;28;20413;-79
2022/09/20 04:03:48;;;;;;;;;;;8.50;99.90;;;;;;5004790;28;19929;-78
2022/09/20 04:06:33;;;;;;;;;;;8.40;99.90;;;;;;4970229;28;20392;-78
2022/09/20 04:09:17;;;;;;;;;;;8.50;99.90;;;;;;4986250;28;20580;-78
2022/09/20 04:12:04;;;;;;;;;;;8.50;99.90;;;;;;4973337;28;19973;-78
2022/09/20 04:14:33;;;;;;;;;;;8.50;99.90;;;;;;4984188;28;20497;-78
2022/09/20 04:17:12;;;;;;;;;;;8.50;99.90;;;;;;4989595;28;19925;-78
2022/09/20 04:19:56;;;;;;;;;;;8.60;99.90;;;;;;4971014;28;19932;-81
2022/09/20 04:22:24;;;;;;;;;;;8.60;99.90;;;;;;4971285;28;20343;-78
2022/09/20 04:24:55;;;;;;;;;;;8.60;99.90;;;;;;4971513;28;19973;-81
2022/09/20 04:27:25;;;;;;;;;;;8.60;99.90;;;;;;4990263;28;19936;-78
2022/09/20 04:29:51;;;;;;;;;;;8.60;99.90;;;;;;4987634;28;19929;-78
2022/09/20 04:32:24;;;;;;;;;;;8.60;99.90;;;;;;4988786;28;19926;-77
2022/09/20 04:37:43;;;;;;;;;;;8.70;99.90;;;;;;4987285;28;19996;-78
2022/09/20 04:40:19;;;;;;;;;;;8.70;99.90;;;;;;4988475;28;19969;-80
2022/09/20 04:42:45;;;;;;;;;;;8.70;99.90;;;;;;4985778;28;20295;-79
2022/09/20 04:45:12;;;;;;;;;;;8.80;99.90;;;;;;4970546;28;19925;-78
2022/09/20 04:47:38;;;;;;;;;;;8.70;99.90;;;;;;4971692;28;19933;-77
2022/09/20 04:50:09;;;;;;;;;;;8.80;99.90;;;;;;4972106;28;19932;-79
2022/09/20 04:52:54;;;;;;;;;;;8.80;99.90;;;;;;4983138;28;20421;-78
2022/09/20 04:55:38;;;;;;;;;;;8.80;99.90;;;;;;4971282;28;19979;-78
2022/09/20 04:58:25;;;;;;;;;;;8.80;99.90;;;;;;4979529;28;20024;-79
2022/09/20 05:00:54;;;;;;;;;;;8.80;99.90;;;;;;4981352;28;19929;-78
2022/09/20 05:03:29;;;;;;;;;;;8.70;99.90;;;;;;4965557;28;20032;-77
2022/09/20 05:06:07;;;;;;;;;;;8.70;99.90;;;;;;4968793;28;20008;-80
2022/09/20 05:08:39;;;;;;;;;;;8.60;99.90;;;;;;4969992;28;20036;-78
2022/09/20 05:11:29;;;;;;;;;;;8.60;99.90;;;;;;4961009;28;19937;-78
2022/09/20 05:13:56;;;;;;;;;;;8.60;99.90;;;;;;4971193;28;19926;-87
2022/09/20 05:16:41;;;;;;;;;;;8.60;99.90;;;;;;4986891;28;19925;-88
2022/09/20 05:19:11;;;;;;;;;;;8.70;99.90;;;;;;4968387;28;20507;-79
2022/09/20 05:21:55;;;;;;;;;;;8.70;99.90;;;;;;4969361;28;19925;-80
2022/09/20 05:24:51;;;;;;;;;;;8.80;99.90;;;;;;4974262;28;20459;-79
2022/09/20 05:27:23;;;;;;;;;;;8.80;99.90;;;;;;4891456;29;19927;-79
2022/09/20 05:30:00;;;;;;;;;;;8.90;99.90;;;;;;4907117;29;20000;-80
2022/09/20 05:32:35;;;;;;;;;;;9.40;99.90;;;;;;4967007;28;19930;-79
2022/09/20 05:35:04;;;;;;;;;;;9.00;99.90;;;;;;4969620;28;19926;-79
2022/09/20 05:37:30;;;;;;;;;;;9.00;99.90;;;;;;4986444;28;19972;-79
2022/09/20 05:40:12;;;;;;;;;;;9.10;99.90;;;;;;4973339;28;19933;-79
2022/09/20 05:42:41;;;;;;;;;;;9.20;99.90;;;;;;4967716;28;20494;-81
2022/09/20 05:45:25;;;;;;;;;;;9.30;99.90;;;;;;4969449;28;19926;-80
2022/09/20 05:47:58;;;;;;;;;;;8.80;99.90;;;;;;4970684;28;19937;-81
2022/09/20 05:50:24;;;;;;;;;;;9.40;99.90;;;;;;5002420;28;20025;-78
2022/09/20 05:53:23;;;;;;;;;;;9.40;99.90;;;;;;4979007;28;20492;-78
2022/09/20 05:56:17;;;;;;;;;;;9.40;99.90;;;;;;4973749;28;20026;-79
2022/09/20 05:59:03;;;;;;;;;;;9.50;99.90;;;;;;4992001;28;19969;-78
2022/09/20 06:01:40;;;;;;;;;;;9.50;99.90;;;;;;4989374;28;19941;-79
2022/09/20 06:04:17;;;;;;;;;;;9.60;99.90;;;;;;4969885;28;20457;-79
2022/09/20 06:06:42;;;;;;;;;;;9.60;99.90;;;;;;4987252;28;19961;-79
2022/09/20 06:09:18;;;;;;;;;;;9.70;99.90;;;;;;4979692;28;20256;-79
2022/09/20 06:11:56;;;;;;;;;;;9.70;99.90;;;;;;4991309;28;20069;-81
2022/09/20 06:14:45;;;;;;;;;;;9.80;99.90;;;;;;4991663;28;19930;-78
2022/09/20 06:17:11;;;;;;;;;;;9.80;99.90;;;;;;4974239;28;20445;-79
2022/09/20 06:19:44;;;;;;;;;;;9.90;99.90;;;;;;4998424;28;19979;-80
2022/09/20 06:22:28;;;;;;;;;;;10.00;99.90;;;;;;5003840;28;20016;-79
2022/09/20 06:25:03;;;;;;;;;;;10.10;99.90;;;;;;4984600;28;19968;-79
2022/09/20 06:27:38;;;;;;;;;;;10.20;99.90;;;;;;4985695;28;19969;-78
2022/09/20 06:30:06;;;;;;;;;;;10.40;99.90;;;;;;5007716;28;19925;-83
2022/09/20 06:32:33;;;;;;;;;;;10.40;99.90;;;;;;4978106;28;19972;-78
2022/09/20 06:35:01;;;;;;;;;;;10.50;99.90;;;;;;4991569;28;20560;-79
2022/09/20 06:43:13;;;;;;;;;;;10.30;99.90;;;;;;5004531;28;19979;-78
2022/09/20 06:45:42;;;;;;;;;;;10.30;99.90;;;;;;4984914;28;19984;-78
2022/09/20 06:48:10;;;;;;;;;;;10.30;99.90;;;;;;4980127;28;20526;-79
2022/09/20 06:50:36;;;;;;;;;;;10.30;99.90;;;;;;4968989;28;19930;-79
2022/09/20 06:53:02;;;;;;;;;;;10.30;99.90;;;;;;4981910;28;19984;-79
2022/09/20 06:55:29;;;;;;;;;;;10.40;99.90;;;;;;4990340;28;19940;-81
2022/09/20 06:57:55;;;;;;;;;;;10.40;99.90;;;;;;5003553;28;20505;-79
2022/09/20 07:00:21;;;;;;;;;;;10.40;99.90;;;;;;4972828;28;19930;-80
2022/09/20 07:02:48;;;;;;;;;;;10.40;99.90;;;;;;4994104;28;20485;-79
2022/09/20 07:05:15;;;;;;;;;;;10.50;99.90;;;;;;4991436;28;19982;-79
2022/09/20 07:07:42;;;;;;;;;;;10.50;99.90;;;;;;4987789;28;19939;-81
2022/09/20 07:10:09;;;;;;;;;;;10.60;99.90;;;;;;4965362;28;19930;-79
2022/09/20 07:12:36;;;;;;;;;;;10.60;99.90;;;;;;4970741;28;20426;-79
2022/09/20 07:15:02;;;;;;;;;;;10.70;99.90;;;;;;4994344;28;19925;-79
2022/09/20 07:17:28;;;;;;;;;;;10.70;99.90;;;;;;5009021;28;19959;-80
2022/09/20 07:19:55;;;;;;;;;;;10.80;99.90;;;;;;4988311;28;19929;-79
2022/09/20 07:22:21;;;;;;;;;;;10.80;99.90;;;;;;5008034;28;19932;-79
2022/09/20 07:24:48;;;;;;;;;;;10.90;99.90;;;;;;5001060;28;20012;-82
2022/09/20 07:27:15;;;;;;;;;;;10.90;99.90;;;;;;4993303;28;19930;-78
2022/09/20 07:29:49;;;;;;;;;;;11.00;99.90;;;;;;5003994;28;20764;-86
2022/09/20 07:32:16;;;;;;;;;;;11.00;99.90;;;;;;4986091;28;19933;-80
2022/09/20 07:34:42;;;;;;;;;;;11.10;99.90;;;;;;4988269;28;20327;-79
2022/09/20 07:37:08;;;;;;;;;;;11.40;99.90;;;;;;4999921;28;20005;-84
2022/09/20 07:39:34;;;;;;;;;;;;;;;;;;5002048;28;19936;-79
2022/09/20 07:42:04;;;;;;;;;;;12.00;99.90;;;;;;4993757;28;19929;-78
2022/09/20 07:44:30;;;;;;;;;;;12.20;99.90;;;;;;4974700;28;19935;-79
2022/09/20 07:47:00;;;;;;;;;;;12.40;99.90;;;;;;4990798;28;19925;-78
2022/09/20 07:49:29;;;;;;;;;;;12.60;99.90;;;;;;5008126;28;19929;-82
2022/09/20 07:51:55;;;;;;;;;;;12.80;99.90;;;;;;4992297;28;20035;-79
2022/09/20 07:54:21;;;;;;;;;;;;;;;;;;4994914;28;20145;-78
2022/09/20 07:56:47;;;;;;;;;;;15.10;99.90;;;;;;5001964;28;19922;-79
2022/09/20 07:59:13;;;;;;;;;;;16.40;99.90;;;;;;4984358;28;19925;-79
2022/09/20 08:01:39;;;;;;;;;;;17.20;99.90;;;;;;4985806;28;19941;-78
2022/09/20 08:04:05;;;;;;;;;;;18.40;99.90;;;;;;5021335;28;19925;-79
2022/09/20 08:06:31;;;;;;;;;;;18.40;99.90;;;;;;4972066;28;20434;-80
2022/09/20 08:08:57;;;;;;;;;;;18.60;99.90;;;;;;5001557;28;19965;-79
2022/09/20 08:11:28;;;;;;;;;;;18.60;99.90;;;;;;4969969;28;19935;-80
2022/09/20 08:14:02;;;;;;;;;;;18.80;99.90;;;;;;5108754;27;20322;-81
2022/09/20 08:16:28;;;;;;;;;;;19.00;99.90;;;;;;5093591;28;20538;-80
2022/09/20 08:18:56;;;;;;;;;;;19.20;99.90;;;;;;5117287;28;19927;-80
2022/09/20 08:21:22;;;;;;;;;;;19.40;99.90;;;;;;5096499;28;20009;-79
2022/09/20 08:23:48;;;;;;;;;;;19.60;99.90;;;;;;5092994;28;19928;-82
2022/09/20 08:26:17;;;;;;;;;;;19.20;99.90;;;;;;5101915;28;19931;-83
2022/09/20 08:28:45;;;;;;;;;;;18.40;99.90;;;;;;5092652;28;20410;-80
2022/09/20 08:31:12;;;;;;;;;;;17.60;99.90;;;;;;5114326;27;19985;-82
2022/09/20 08:33:39;;;;;;;;;;;17.20;99.90;;;;;;5098275;28;19927;-81
2022/09/20 08:36:06;;;;;;;;;;;16.70;99.90;;;;;;5088404;28;20311;-80
2022/09/20 08:38:33;;;;;;;;;;;16.50;99.90;;;;;;5099239;28;19935;-81
2022/09/20 08:41:03;;;;;;;;;;;16.20;99.90;;;;;;5133465;27;19931;-82
2022/09/20 08:43:31;;;;;;;;;;;16.00;99.90;;;;;;5121571;27;19946;-83
2022/09/20 08:45:58;;;;;;;;;;;15.80;99.90;;;;;;5093826;28;20008;-81
2022/09/20 08:48:27;;;;;;;;;;;15.50;99.90;;;;;;5099872;28;19985;-80
2022/09/20 08:50:53;;;;;;;;;;;15.20;99.90;;;;;;5107530;27;19932;-81
2022/09/20 08:53:19;;;;;;;;;;;15.00;99.90;;;;;;5061078;28;19924;-83
2022/09/20 08:55:46;;;;;;;;;;;14.80;99.90;;;;;;5091145;28;19924;-82
2022/09/20 08:58:13;;;;;;;;;;;14.60;99.90;;;;;;5117231;27;19971;-80
2022/09/20 09:00:39;;;;;;;;;;;14.40;99.90;;;;;;5116036;27;20052;-80
2022/09/20 09:03:09;;;;;;;;;;;14.40;99.90;;;;;;5077817;28;21337;-82
2022/09/20 09:05:51;;;;;;;;;;;14.40;99.90;;;;;;5086990;28;19935;-81
2022/09/20 09:08:18;;;;;;;;;;;14.50;99.90;;;;;;5110396;27;20483;-81
2022/09/20 09:10:52;;;;;;;;;;;14.80;99.90;;;;;;5102212;28;19924;-83
2022/09/20 09:13:27;;;;;;;;;;;14.90;99.90;;;;;;5111324;27;19977;-79
2022/09/20 09:15:56;;;;;;;;;;;14.90;99.90;;;;;;5096559;28;19943;-82
2022/09/20 09:18:28;;;;;;;;;;;14.80;99.90;;;;;;5111707;27;19943;-81
2022/09/20 09:20:57;;;;;;;;;;;14.80;99.90;;;;;;5077121;28;20387;-81
2022/09/20 09:23:25;;;;;;;;;;;15.00;99.90;;;;;;5091246;28;20059;-82
2022/09/20 09:25:55;;;;;;;;;;;15.30;99.90;;;;;;5113686;27;20011;-82
2022/09/20 09:28:25;;;;;;;;;;;15.30;99.90;;;;;;5081084;28;19939;-84
2022/09/20 09:31:12;;;;;;;;;;;15.40;99.90;;;;;;5104604;28;19929;-88
2022/09/20 09:33:42;;;;;;;;;;;15.50;99.90;;;;;;5087980;28;19936;-89
2022/09/20 09:36:15;;;;;;;;;;;15.40;99.90;;;;;;5064401;28;19931;-87
2022/09/20 09:38:45;;;;;;;;;;;15.30;99.90;;;;;;5087475;28;19936;-89
2022/09/20 09:41:16;;;;;;;;;;;15.20;99.90;;;;;;5081894;28;20400;-89
2022/09/20 09:43:44;;;;;;;;;;;15.00;99.90;;;;;;5061591;28;20126;-83
2022/09/20 09:46:20;;;;;;;;;;;14.90;99.90;;;;;;5097284;27;19927;-81
2022/09/20 09:48:48;;;;;;;;;;;14.80;99.90;;;;;;5112050;27;19986;-82
2022/09/20 09:51:19;;;;;;;;;;;14.70;99.90;;;;;;5101776;28;19928;-83
2022/09/20 09:53:47;;;;;;;;;;;14.70;99.90;;;;;;5089540;28;19984;-84
2022/09/20 09:56:20;;;;;;;;;;;14.70;99.90;;;;;;5086589;28;20384;-87
2022/09/20 09:58:46;;;;;;;;;;;14.70;99.90;;;;;;5072854;28;19936;-83
2022/09/20 10:01:22;;;;;;;;;;;14.70;99.90;;;;;;5084125;28;19924;-87
2022/09/20 10:03:58;;;;;;;;;;;14.70;99.90;;;;;;5076732;28;19926;-85
2022/09/20 10:06:37;;;;;;;;;;;14.80;99.90;;;;;;5129345;27;19939;-83
2022/09/20 10:09:18;;;;;;;;;;;14.90;99.90;;;;;;5079023;28;20420;-83
2022/09/20 10:11:59;;;;;;;;;;;15.00;99.90;;;;;;5094431;28;19927;-84
2022/09/20 10:14:48;;;;;;;;;;;15.10;99.90;;;;;;5123658;27;19931;-82
2022/09/20 10:17:20;;;;;;;;;;;15.50;99.90;;;;;;5099103;28;19924;-82
2022/09/20 10:19:56;;;;;;;;;;;15.40;99.90;;;;;;5096158;27;19936;-83
2022/09/20 10:22:22;;;;;;;;;;;15.60;99.90;;;;;;5111895;27;19932;-81
2022/09/20 10:25:09;;;;;;;;;;;15.70;99.90;;;;;;5083645;28;19924;-82
2022/09/20 10:27:35;;;;;;;;;;;15.80;99.90;;;;;;5097306;28;19932;-79
2022/09/20 10:30:12;;;;;;;;;;;15.90;99.90;;;;;;5064089;28;20267;-83
2022/09/20 10:32:56;;;;;;;;;;;15.90;99.90;;;;;;5076910;28;20124;-81
2022/09/20 10:35:22;;;;;;;;;;;15.80;99.90;;;;;;5071211;28;19924;-81
2022/09/20 10:37:57;;;;;;;;;;;15.80;99.90;;;;;;5080511;28;20336;-81
2022/09/20 10:40:23;;;;;;;;;;;15.90;99.90;;;;;;5112428;27;19990;-83
2022/09/20 10:43:14;;;;;;;;;;;15.70;99.90;;;;;;5109716;27;19968;-83
2022/09/20 10:45:59;;;;;;;;;;;15.60;99.90;;;;;;5074287;28;19986;-81
2022/09/20 10:48:24;;;;;;;;;;;15.50;99.90;;;;;;5106470;27;20011;-82
2022/09/20 10:50:54;;;;;;;;;;;15.50;99.90;;;;;;5111911;27;20015;-81
2022/09/20 10:53:38;;;;;;;;;;;15.50;99.90;;;;;;5080409;28;20019;-82
2022/09/20 10:56:23;;;;;;;;;;;15.40;99.90;;;;;;5084988;28;20200;-80
2022/09/20 10:58:53;;;;;;;;;;;15.40;99.90;;;;;;5066101;28;19928;-82
2022/09/20 11:01:37;;;;;;;;;;;15.40;99.90;;;;;;5067116;28;19934;-81
2022/09/20 11:04:22;;;;;;;;;;;15.40;99.90;;;;;;5077723;28;19974;-80
2022/09/20 11:07:06;;;;;;;;;;;15.40;99.90;;;;;;5079967;28;20430;-81
2022/09/20 11:10:01;;;;;;;;;;;15.30;99.90;;;;;;5083304;28;19931;-80
2022/09/20 11:12:41;;;;;;;;;;;15.20;99.90;;;;;;5044951;28;20387;-82
2022/09/20 11:15:15;;;;;;;;;;;15.20;99.90;;;;;;5061741;28;19931;-82
2022/09/20 11:17:55;;;;;;;;;;;15.30;99.90;;;;;;5095173;28;19931;-81
2022/09/20 11:20:23;;;;;;;;;;;15.30;99.90;;;;;;5067939;28;20031;-84
2022/09/20 11:22:54;;;;;;;;;;;15.50;99.90;;;;;;5059453;28;20285;-81
2022/09/20 11:25:29;;;;;;;;;;;15.60;99.90;;;;;;5051983;28;20012;-80
2022/09/20 11:28:13;;;;;;;;;;;15.70;99.90;;;;;;5095355;28;19928;-82
2022/09/20 11:30:42;;;;;;;;;;;15.90;99.90;;;;;;5064381;28;20219;-81
2022/09/20 11:33:26;;;;;;;;;;;15.90;99.90;;;;;;5078160;28;20203;-83
2022/09/20 11:35:56;;;;;;;;;;;16.00;99.90;;;;;;5091843;28;20271;-81
2022/09/20 11:38:31;;;;;;;;;;;16.20;99.90;;;;;;5102880;27;20414;-82
2022/09/20 11:41:16;;;;;;;;;;;16.40;99.90;;;;;;5068685;28;20057;-82
2022/09/20 11:43:44;;;;;;;;;;;16.40;99.90;;;;;;5060072;28;19938;-84
2022/09/20 11:46:32;;;;;;;;;;;16.10;99.90;;;;;;5105300;28;19935;-82
2022/09/20 11:49:02;;;;;;;;;;;15.80;99.90;;;;;;5108010;27;20391;-81
2022/09/20 11:51:31;;;;;;;;;;;15.60;99.90;;;;;;5083281;28;19973;-83
2022/09/20 11:54:05;;;;;;;;;;;15.40;99.90;;;;;;5081025;28;20242;-82
2022/09/20 11:56:33;;;;;;;;;;;15.30;99.90;;;;;;5099005;27;20028;-84
2022/09/20 11:59:03;;;;;;;;;;;15.20;99.90;;;;;;5075723;28;20426;-84
2022/09/20 12:01:31;;;;;;;;;;;15.10;99.90;;;;;;5051163;28;19928;-82
2022/09/20 12:04:17;;;;;;;;;;;15.10;99.90;;;;;;5066762;28;19943;-81
2022/09/20 12:06:44;;;;;;;;;;;15.20;99.90;;;;;;5078865;28;19928;-83
2022/09/20 12:09:24;;;;;;;;;;;15.40;99.90;;;;;;5071372;28;20284;-84
2022/09/20 12:11:51;;;;;;;;;;;15.70;99.90;;;;;;5064145;28;20199;-82
2022/09/20 12:14:18;;;;;;;;;;;15.80;99.90;;;;;;5074765;28;19963;-82
2022/09/20 12:16:46;;;;;;;;;;;15.90;99.90;;;;;;5065871;28;19924;-84
2022/09/20 12:19:13;;;;;;;;;;;15.90;99.90;;;;;;5080478;28;19931;-81
2022/09/20 12:21:54;;;;;;;;;;;15.90;99.90;;;;;;5101879;28;19935;-82
2022/09/20 12:24:20;;;;;;;;;;;15.80;99.90;;;;;;5072658;28;20383;-81
2022/09/20 12:26:47;;;;;;;;;;;15.70;99.90;;;;;;5103312;28;20479;-82
2022/09/20 12:29:36;;;;;;;;;;;15.70;99.90;;;;;;5112544;27;20023;-83
2022/09/20 12:32:21;;;;;;;;;;;15.80;99.90;;;;;;5041107;28;20230;-84
2022/09/20 12:34:47;;;;;;;;;;;15.90;99.90;;;;;;5090424;28;20027;-81
2022/09/20 12:37:13;;;;;;;;;;;16.00;99.90;;;;;;5074991;28;19931;-84
2022/09/20 12:39:48;;;;;;;;;;;16.10;99.90;;;;;;5077593;28;20392;-81
2022/09/20 12:42:17;;;;;;;;;;;16.10;99.90;;;;;;5079337;28;20336;-82
2022/09/20 12:44:49;;;;;;;;;;;16.50;99.90;;;;;;5066135;28;20047;-84
2022/09/20 12:47:15;;;;;;;;;;;16.10;99.90;;;;;;5095045;28;20237;-83
2022/09/20 12:55:32;;;;;;;;;;;15.70;99.90;;;;;;5118456;27;19924;-83
2022/09/20 12:58:04;;;;;;;;;;;15.60;99.90;;;;;;5116251;28;19924;-80
2022/09/20 13:00:36;;;;;;;;;;;15.60;99.90;;;;;;5082550;28;19934;-79
2022/09/20 13:03:11;;;;;;;;;;;15.50;99.90;;;;;;5065753;28;19928;-81
2022/09/20 13:05:47;;;;;;;;;;;15.70;99.90;;;;;;5084997;28;19924;-81
2022/09/20 13:08:22;;;;;;;;;;;15.90;99.90;;;;;;5100869;28;19947;-84
2022/09/20 13:10:59;;;;;;;;;;;15.80;99.90;;;;;;5068492;28;19977;-83
2022/09/20 13:13:34;;;;;;;;;;;15.80;99.90;;;;;;5069085;28;19928;-84
2022/09/20 13:16:04;;;;;;;;;;;15.80;99.90;;;;;;5085781;28;20031;-84
2022/09/20 13:18:34;;;;;;;;;;;15.90;99.90;;;;;;5060601;28;20395;-82
2022/09/20 13:21:05;;;;;;;;;;;15.90;99.90;;;;;;5082516;28;19928;-80
2022/09/20 13:23:45;;;;;;;;;;;15.90;99.90;;;;;;5081093;28;19967;-82
2022/09/20 13:26:12;;;;;;;;;;;15.80;99.90;;;;;;5074512;28;19928;-85
2022/09/20 13:28:43;;;;;;;;;;;15.60;99.90;;;;;;5069265;28;20472;-82
2022/09/20 13:31:20;;;;;;;;;;;15.60;99.90;;;;;;5096642;27;19935;-82
2022/09/20 13:33:46;;;;;;;;;;;15.70;99.90;;;;;;5112957;27;19924;-81
2022/09/20 13:36:13;;;;;;;;;;;15.70;99.90;;;;;;5081325;28;19931;-82
2022/09/20 13:38:39;;;;;;;;;;;15.50;99.90;;;;;;5081676;28;19928;-88
2022/09/20 13:41:08;;;;;;;;;;;15.50;99.90;;;;;;5084292;28;19934;-85
2022/09/20 13:43:42;;;;;;;;;;;15.60;99.90;;;;;;5081150;28;20020;-86
2022/09/20 13:46:09;;;;;;;;;;;15.60;99.90;;;;;;5078521;28;20390;-90
2022/09/20 13:48:35;;;;;;;;;;;15.60;99.90;;;;;;5082963;28;20521;-84
2022/09/20 13:51:01;;;;;;;;;;;15.60;99.90;;;;;;5086253;28;19928;-84
2022/09/20 13:53:29;;;;;;;;;;;15.50;99.90;;;;;;5095195;27;19943;-83
2022/09/20 13:55:55;;;;;;;;;;;15.30;99.90;;;;;;5065642;28;19931;-85
2022/09/20 13:58:24;;;;;;;;;;;15.20;99.90;;;;;;5085916;28;20452;-83
2022/09/20 14:00:52;;;;;;;;;;;15.10;99.90;;;;;;5079320;28;20547;-84
2022/09/20 14:03:18;;;;;;;;;;;15.10;99.90;;;;;;5076693;28;20026;-83
2022/09/20 14:05:54;;;;;;;;;;;15.00;99.90;;;;;;5064745;28;19924;-85
2022/09/20 14:08:25;;;;;;;;;;;14.90;99.90;;;;;;5082352;28;19928;-83
2022/09/20 14:11:03;;;;;;;;;;;14.90;99.90;;;;;;5092152;28;20010;-84
2022/09/20 14:13:32;;;;;;;;;;;14.70;99.90;;;;;;5076777;28;19939;-83
2022/09/20 14:15:58;;;;;;;;;;;14.70;99.90;;;;;;5081768;28;20388;-84
2022/09/20 14:18:24;;;;;;;;;;;14.70;99.90;;;;;;5115845;27;19924;-86
2022/09/20 14:20:50;;;;;;;;;;;14.90;99.90;;;;;;5062003;28;20680;-83
2022/09/20 14:23:26;;;;;;;;;;;15.10;99.90;;;;;;5063231;28;20516;-82
2022/09/20 14:26:05;;;;;;;;;;;15.20;99.90;;;;;;5072579;28;19939;-91
2022/09/20 14:28:32;;;;;;;;;;;15.20;99.90;;;;;;5091612;28;19931;-88
2022/09/20 14:31:15;;;;;;;;;;;15.30;99.90;;;;;;5086997;28;19932;-83
2022/09/20 14:33:46;;;;;;;;;;;15.30;99.90;;;;;;5077121;28;20621;-86
2022/09/20 14:36:14;;;;;;;;;;;15.40;99.90;;;;;;5068456;28;19924;-83
2022/09/20 14:38:42;;;;;;;;;;;15.40;99.90;;;;;;5098599;27;19963;-83
2022/09/20 14:41:08;;;;;;;;;;;15.40;99.90;;;;;;5100252;27;19963;-83
2022/09/20 14:43:44;;;;;;;;;;;15.30;99.90;;;;;;5059902;28;20291;-84
2022/09/20 14:46:16;;;;;;;;;;;15.10;99.90;;;;;;5099669;28;20201;-84
2022/09/20 14:48:44;;;;;;;;;;;15.00;99.90;;;;;;5063180;28;19928;-81
2022/09/20 14:51:28;;;;;;;;;;;14.90;99.90;;;;;;5082473;28;20350;-83
2022/09/20 14:54:03;;;;;;;;;;;14.90;99.90;;;;;;5087812;28;20351;-83
2022/09/20 14:56:34;;;;;;;;;;;14.70;99.90;;;;;;5119739;27;20369;-85
2022/09/20 14:59:18;;;;;;;;;;;14.60;99.90;;;;;;5094866;28;19986;-83
2022/09/20 15:01:52;;;;;;;;;;;14.60;99.90;;;;;;5075787;28;19924;-83
2022/09/20 15:04:20;;;;;;;;;;;14.60;99.90;;;;;;5073926;28;19995;-82
2022/09/20 15:06:46;;;;;;;;;;;14.50;99.90;;;;;;5079292;28;19932;-83
2022/09/20 15:09:12;;;;;;;;;;;14.50;99.90;;;;;;5106274;27;20019;-84
2022/09/20 15:11:39;;;;;;;;;;;14.40;99.90;;;;;;5078376;28;20024;-84
2022/09/20 15:14:05;;;;;;;;;;;14.30;99.90;;;;;;5084339;28;19979;-85
2022/09/20 15:16:32;;;;;;;;;;;14.30;99.90;;;;;;5073634;28;20451;-83